sensor_id;sensor_type;location;lat;lon;timestamp;pressure;altitude;pressure_sealevel;temperature;humidity
76321;BME280;65132;52.088;5.402;2023-03-01T00:01:34;103355.75;;;-1.88;81.51
76321;BME280;65132;52.088;5.402;2023-03-01T00:04:01;103343.38;;;-1.90;80.81
76321;BME280;65132;52.088;5.402;2023-03-01T00:06:27;103338.94;;;-1.87;81.23
76321;BME280;65132;52.088;5.402;2023-03-01T00:08:54;103350.47;;;-1.89;81.25
76321;BME280;65132;52.088;5.402;2023-03-01T00:11:22;103343.38;;;-1.86;81.46
76321;BME280;65132;52.088;5.402;2023-03-01T00:13:51;103352.25;;;-1.96;82.46
76321;BME280;65132;52.088;5.402;2023-03-01T00:18:49;103355.81;;;-2.04;82.74
76321;BME280;65132;52.088;5.402;2023-03-01T00:21:16;103350.47;;;-2.06;82.95
76321;BME280;65132;52.088;5.402;2023-03-01T00:23:42;103354.91;;;-2.03;82.89
76321;BME280;65132;52.088;5.402;2023-03-01T00:26:11;103348.72;;;-2.02;82.68
76321;BME280;65132;52.088;5.402;2023-03-01T00:28:38;103338.09;;;-2.01;83.26
76321;BME280;65132;52.088;5.402;2023-03-01T00:31:13;103343.41;;;-1.99;82.60
76321;BME280;65132;52.088;5.402;2023-03-01T00:33:40;103338.13;;;-2.07;82.90
76321;BME280;65132;52.088;5.402;2023-03-01T00:36:08;103333.75;;;-2.20;82.96
76321;BME280;65132;52.088;5.402;2023-03-01T00:38:41;103331.09;;;-2.20;83.74
76321;BME280;65132;52.088;5.402;2023-03-01T00:41:11;103334.59;;;-2.19;83.63
76321;BME280;65132;52.088;5.402;2023-03-01T00:43:38;103325.81;;;-2.32;83.50
76321;BME280;65132;52.088;5.402;2023-03-01T00:46:16;103332.88;;;-2.32;84.46
76321;BME280;65132;52.088;5.402;2023-03-01T00:48:45;103342.59;;;-2.27;84.37
76321;BME280;65132;52.088;5.402;2023-03-01T00:51:14;103337.28;;;-2.37;84.17
76321;BME280;65132;52.088;5.402;2023-03-01T00:53:41;103341.72;;;-2.35;84.70
76321;BME280;65132;52.088;5.402;2023-03-01T00:56:09;103331.97;;;-2.36;84.57
76321;BME280;65132;52.088;5.402;2023-03-01T00:58:36;103332.88;;;-2.35;84.52
76321;BME280;65132;52.088;5.402;2023-03-01T01:01:19;103320.50;;;-2.30;84.24
76321;BME280;65132;52.088;5.402;2023-03-01T01:03:57;103326.69;;;-2.40;84.38
76321;BME280;65132;52.088;5.402;2023-03-01T01:06:39;103323.16;;;-2.41;84.65
76321;BME280;65132;52.088;5.402;2023-03-01T01:09:06;103326.69;;;-2.47;84.52
76321;BME280;65132;52.088;5.402;2023-03-01T01:11:34;103321.41;;;-2.57;84.82
76321;BME280;65132;52.088;5.402;2023-03-01T01:14:01;103319.66;;;-2.61;85.20
76321;BME280;65132;52.088;5.402;2023-03-01T01:16:28;103317.88;;;-2.64;85.20
76321;BME280;65132;52.088;5.402;2023-03-01T01:18:56;103317.00;;;-2.70;85.16
76321;BME280;65132;52.088;5.402;2023-03-01T01:21:23;103317.00;;;-2.70;85.65
76321;BME280;65132;52.088;5.402;2023-03-01T01:23:51;103302.88;;;-2.80;85.53
76321;BME280;65132;52.088;5.402;2023-03-01T01:26:21;103301.09;;;-2.82;85.18
76321;BME280;65132;52.088;5.402;2023-03-01T01:28:49;103301.97;;;-2.82;85.75
76321;BME280;65132;52.088;5.402;2023-03-01T01:31:17;103299.34;;;-2.74;85.72
76321;BME280;65132;52.088;5.402;2023-03-01T01:33:44;103309.03;;;-2.69;84.95
76321;BME280;65132;52.088;5.402;2023-03-01T01:36:11;103291.38;;;-2.67;85.29
76321;BME280;65132;52.088;5.402;2023-03-01T01:38:38;103292.28;;;-2.69;85.49
76321;BME280;65132;52.088;5.402;2023-03-01T01:41:05;103290.50;;;-2.70;85.79
76321;BME280;65132;52.088;5.402;2023-03-01T01:43:39;103290.50;;;-2.69;85.49
76321;BME280;65132;52.088;5.402;2023-03-01T01:48:59;103300.19;;;-2.72;85.25
76321;BME280;65132;52.088;5.402;2023-03-01T01:51:32;103290.50;;;-2.73;86.05
76321;BME280;65132;52.088;5.402;2023-03-01T01:54:00;103285.22;;;-2.76;86.09
76321;BME280;65132;52.088;5.402;2023-03-01T01:56:27;103290.50;;;-2.82;86.16
76321;BME280;65132;52.088;5.402;2023-03-01T01:58:55;103289.63;;;-2.78;86.03
76321;BME280;65132;52.088;5.402;2023-03-01T02:01:22;103278.13;;;-2.80;85.48
76321;BME280;65132;52.088;5.402;2023-03-01T02:03:48;103274.59;;;-2.82;85.12
76321;BME280;65132;52.088;5.402;2023-03-01T02:06:37;103271.94;;;-2.81;86.29
76321;BME280;65132;52.088;5.402;2023-03-01T02:09:08;103271.09;;;-2.81;85.75
76321;BME280;65132;52.088;5.402;2023-03-01T02:11:39;103276.38;;;-2.87;85.50
76321;BME280;65132;52.088;5.402;2023-03-01T02:14:06;103285.19;;;-2.84;86.57
76321;BME280;65132;52.088;5.402;2023-03-01T02:16:33;103278.13;;;-2.91;86.20
76321;BME280;65132;52.088;5.402;2023-03-01T02:19:03;103270.19;;;-2.91;86.50
76321;BME280;65132;52.088;5.402;2023-03-01T02:26:50;103271.06;;;-2.90;86.02
76321;BME280;65132;52.088;5.402;2023-03-01T02:29:17;103271.06;;;-2.86;86.15
76321;BME280;65132;52.088;5.402;2023-03-01T02:31:44;103272.84;;;-2.92;86.93
76321;BME280;65132;52.088;5.402;2023-03-01T02:34:23;103261.38;;;-2.91;86.70
76321;BME280;65132;52.088;5.402;2023-03-01T02:37:10;103262.22;;;-2.88;86.79
76321;BME280;65132;52.088;5.402;2023-03-01T02:39:44;103249.00;;;-2.89;86.22
76321;BME280;65132;52.088;5.402;2023-03-01T02:42:16;103253.44;;;-2.87;86.81
76321;BME280;65132;52.088;5.402;2023-03-01T02:44:44;103249.00;;;-2.91;87.36
76321;BME280;65132;52.088;5.402;2023-03-01T02:47:12;103250.78;;;-2.88;86.88
76321;BME280;65132;52.088;5.402;2023-03-01T02:49:38;103245.47;;;-2.94;87.10
76321;BME280;65132;52.088;5.402;2023-03-01T02:55:01;103251.66;;;-3.01;87.28
76321;BME280;65132;52.088;5.402;2023-03-01T02:57:30;103251.66;;;-3.13;86.59
76321;BME280;65132;52.088;5.402;2023-03-01T03:00:00;103248.09;;;-3.21;86.58
76321;BME280;65132;52.088;5.402;2023-03-01T03:02:30;103248.09;;;-3.32;86.00
76321;BME280;65132;52.088;5.402;2023-03-01T03:04:56;103246.31;;;-3.46;86.94
76321;BME280;65132;52.088;5.402;2023-03-01T03:07:22;103242.78;;;-3.53;88.54
76321;BME280;65132;52.088;5.402;2023-03-01T03:09:49;103243.66;;;-3.45;89.35
76321;BME280;65132;52.088;5.402;2023-03-01T03:12:21;103240.13;;;-3.51;89.62
76321;BME280;65132;52.088;5.402;2023-03-01T03:14:47;103238.41;;;-3.36;89.00
76321;BME280;65132;52.088;5.402;2023-03-01T03:17:14;103251.66;;;-3.25;88.62
76321;BME280;65132;52.088;5.402;2023-03-01T03:19:40;103250.75;;;-3.21;87.80
76321;BME280;65132;52.088;5.402;2023-03-01T03:22:08;103233.09;;;-3.30;87.52
76321;BME280;65132;52.088;5.402;2023-03-01T03:24:35;103229.59;;;-3.27;87.30
76321;BME280;65132;52.088;5.402;2023-03-01T03:27:04;103226.03;;;-3.37;87.68
76321;BME280;65132;52.088;5.402;2023-03-01T03:29:33;103227.78;;;-3.46;87.80
76321;BME280;65132;52.088;5.402;2023-03-01T03:32:02;103224.25;;;-3.53;87.80
76321;BME280;65132;52.088;5.402;2023-03-01T03:34:28;103232.16;;;-3.59;87.86
76321;BME280;65132;52.088;5.402;2023-03-01T03:36:57;103233.06;;;-3.60;88.04
76321;BME280;65132;52.088;5.402;2023-03-01T03:39:24;103236.56;;;-3.64;88.11
76321;BME280;65132;52.088;5.402;2023-03-01T03:41:50;103234.81;;;-3.59;88.74
76321;BME280;65132;52.088;5.402;2023-03-01T03:44:16;103233.97;;;-3.61;88.72
76321;BME280;65132;52.088;5.402;2023-03-01T03:46:43;103238.34;;;-3.63;88.14
76321;BME280;65132;52.088;5.402;2023-03-01T03:49:11;103238.31;;;-3.71;89.03
76321;BME280;65132;52.088;5.402;2023-03-01T03:51:40;103233.03;;;-3.71;88.63
76321;BME280;65132;52.088;5.402;2023-03-01T03:54:06;103226.84;;;-3.74;88.86
76321;BME280;65132;52.088;5.402;2023-03-01T03:56:32;103218.06;;;-3.64;89.34
76321;BME280;65132;52.088;5.402;2023-03-01T03:59:01;103216.31;;;-3.68;88.09
76321;BME280;65132;52.088;5.402;2023-03-01T04:01:28;103221.56;;;-3.71;88.83
76321;BME280;65132;52.088;5.402;2023-03-01T04:03:56;103219.84;;;-3.64;88.85
76321;BME280;65132;52.088;5.402;2023-03-01T04:06:25;103226.88;;;-3.59;88.56
76321;BME280;65132;52.088;5.402;2023-03-01T04:08:53;103228.66;;;-3.58;88.85
76321;BME280;65132;52.088;5.402;2023-03-01T04:11:22;103219.84;;;-3.60;88.29
76321;BME280;65132;52.088;5.402;2023-03-01T04:13:49;103222.44;;;-3.69;87.78
76321;BME280;65132;52.088;5.402;2023-03-01T04:16:16;103220.69;;;-3.72;88.43
76321;BME280;65132;52.088;5.402;2023-03-01T04:18:42;103231.25;;;-3.78;88.47
76321;BME280;65132;52.088;5.402;2023-03-01T04:21:08;103233.03;;;-3.78;88.85
76321;BME280;65132;52.088;5.402;2023-03-01T04:23:35;103233.88;;;-3.78;88.99
76321;BME280;65132;52.088;5.402;2023-03-01T04:26:01;103222.41;;;-3.81;89.37
76321;BME280;65132;52.088;5.402;2023-03-01T04:28:32;103228.59;;;-3.82;89.06
76321;BME280;65132;52.088;5.402;2023-03-01T04:31:01;103226.00;;;-3.75;89.35
76321;BME280;65132;52.088;5.402;2023-03-01T04:33:34;103224.16;;;-3.85;89.00
76321;BME280;65132;52.088;5.402;2023-03-01T04:36:03;103227.69;;;-3.87;88.98
76321;BME280;65132;52.088;5.402;2023-03-01T04:38:31;103226.84;;;-3.82;89.67
76321;BME280;65132;52.088;5.402;2023-03-01T04:40:58;103226.81;;;-3.86;89.30
76321;BME280;65132;52.088;5.402;2023-03-01T04:43:24;103216.22;;;-3.89;90.14
76321;BME280;65132;52.088;5.402;2023-03-01T04:45:50;103219.75;;;-3.92;89.60
76321;BME280;65132;52.088;5.402;2023-03-01T04:48:17;103207.41;;;-3.91;89.62
76321;BME280;65132;52.088;5.402;2023-03-01T04:50:43;103211.78;;;-3.98;89.02
76321;BME280;65132;52.088;5.402;2023-03-01T04:53:14;103203.88;;;-3.96;89.94
76321;BME280;65132;52.088;5.402;2023-03-01T04:55:40;103206.50;;;-3.98;90.15
76321;BME280;65132;52.088;5.402;2023-03-01T04:58:06;103202.13;;;-3.99;89.84
76321;BME280;65132;52.088;5.402;2023-03-01T05:00:33;103202.13;;;-3.96;89.31
76321;BME280;65132;52.088;5.402;2023-03-01T05:03:00;103195.03;;;-4.04;89.31
76321;BME280;65132;52.088;5.402;2023-03-01T05:05:34;103193.28;;;-4.05;88.98
76321;BME280;65132;52.088;5.402;2023-03-01T05:08:07;103180.91;;;-4.11;89.80
76321;BME280;65132;52.088;5.402;2023-03-01T05:10:36;103190.66;;;-4.05;89.80
76321;BME280;65132;52.088;5.402;2023-03-01T05:13:05;103183.56;;;-4.12;89.25
76321;BME280;65132;52.088;5.402;2023-03-01T05:15:31;103179.13;;;-4.15;89.59
76321;BME280;65132;52.088;5.402;2023-03-01T05:17:59;103181.78;;;-4.15;89.29
76321;BME280;65132;52.088;5.402;2023-03-01T05:20:29;103180.88;;;-4.23;89.24
76321;BME280;65132;52.088;5.402;2023-03-01T05:22:58;103177.34;;;-4.25;89.87
76321;BME280;65132;52.088;5.402;2023-03-01T05:25:25;103166.78;;;-4.25;90.35
76321;BME280;65132;52.088;5.402;2023-03-01T05:27:52;103171.16;;;-4.28;89.77
76321;BME280;65132;52.088;5.402;2023-03-01T05:30:18;103165.00;;;-4.26;89.87
76321;BME280;65132;52.088;5.402;2023-03-01T05:32:49;103160.59;;;-4.25;89.53
76321;BME280;65132;52.088;5.402;2023-03-01T05:35:17;103157.09;;;-4.20;90.20
76321;BME280;65132;52.088;5.402;2023-03-01T05:37:47;103161.50;;;-4.19;89.67
76321;BME280;65132;52.088;5.402;2023-03-01T05:40:16;103145.63;;;-4.23;89.44
76321;BME280;65132;52.088;5.402;2023-03-01T05:42:56;103144.69;;;-4.36;89.71
76321;BME280;65132;52.088;5.402;2023-03-01T05:45:26;103152.66;;;-4.27;90.18
76321;BME280;65132;52.088;5.402;2023-03-01T05:47:54;103142.97;;;-4.28;90.39
76321;BME280;65132;52.088;5.402;2023-03-01T05:50:26;103142.97;;;-4.25;89.86
76321;BME280;65132;52.088;5.402;2023-03-01T05:53:25;103146.47;;;-4.27;89.98
76321;BME280;65132;52.088;5.402;2023-03-01T05:55:51;103144.72;;;-4.27;90.40
76321;BME280;65132;52.088;5.402;2023-03-01T05:58:19;103134.16;;;-4.28;89.84
76321;BME280;65132;52.088;5.402;2023-03-01T06:00:47;103142.03;;;-4.36;89.61
76321;BME280;65132;52.088;5.402;2023-03-01T06:03:16;103140.28;;;-4.34;90.47
76321;BME280;65132;52.088;5.402;2023-03-01T06:05:43;103140.28;;;-4.34;89.83
76321;BME280;65132;52.088;5.402;2023-03-01T06:08:12;103133.25;;;-4.35;89.33
76321;BME280;65132;52.088;5.402;2023-03-01T06:10:39;103136.75;;;-4.37;89.87
76321;BME280;65132;52.088;5.402;2023-03-01T06:13:06;103135.84;;;-4.45;89.92
76321;BME280;65132;52.088;5.402;2023-03-01T06:15:35;103142.03;;;-4.45;90.17
76321;BME280;65132;52.088;5.402;2023-03-01T06:18:03;103147.31;;;-4.43;90.11
76321;BME280;65132;52.088;5.402;2023-03-01T06:20:35;103151.72;;;-4.42;89.38
76321;BME280;65132;52.088;5.402;2023-03-01T06:23:04;103146.44;;;-4.45;89.27
76321;BME280;65132;52.088;5.402;2023-03-01T06:25:31;103148.22;;;-4.41;89.56
76321;BME280;65132;52.088;5.402;2023-03-01T06:27:59;103145.56;;;-4.40;89.93
76321;BME280;65132;52.088;5.402;2023-03-01T06:30:26;103139.44;;;-4.33;90.24
76321;BME280;65132;52.088;5.402;2023-03-01T06:32:53;103142.97;;;-4.31;89.59
76321;BME280;65132;52.088;5.402;2023-03-01T06:35:40;103144.72;;;-4.28;89.79
76321;BME280;65132;52.088;5.402;2023-03-01T06:38:30;103150.00;;;-4.28;89.65
76321;BME280;65132;52.088;5.402;2023-03-01T06:41:17;103151.81;;;-4.23;89.08
76321;BME280;65132;52.088;5.402;2023-03-01T06:44:02;103147.38;;;-4.24;88.79
76321;BME280;65132;52.088;5.402;2023-03-01T06:46:46;103149.16;;;-4.20;89.34
76321;BME280;65132;52.088;5.402;2023-03-01T06:49:31;103149.16;;;-4.26;89.43
76321;BME280;65132;52.088;5.402;2023-03-01T06:52:19;103143.88;;;-4.20;88.94
76321;BME280;65132;52.088;5.402;2023-03-01T06:55:05;103139.50;;;-4.18;88.55
76321;BME280;65132;52.088;5.402;2023-03-01T06:57:57;103144.78;;;-4.13;89.10
76321;BME280;65132;52.088;5.402;2023-03-01T07:00:43;103141.28;;;-4.02;88.66
76321;BME280;65132;52.088;5.402;2023-03-01T07:03:31;103143.13;;;-3.61;88.83
76321;BME280;65132;52.088;5.402;2023-03-01T07:06:21;103147.50;;;-3.18;86.55
76321;BME280;65132;52.088;5.402;2023-03-01T07:09:06;103139.50;;;-2.82;83.97
76321;BME280;65132;52.088;5.402;2023-03-01T07:11:54;103147.34;;;-2.45;82.21
76321;BME280;65132;52.088;5.402;2023-03-01T07:14:41;103145.50;;;-2.29;80.71
76321;BME280;65132;52.088;5.402;2023-03-01T07:17:28;103135.75;;;-2.21;80.98
76321;BME280;65132;52.088;5.402;2023-03-01T07:20:13;103141.81;;;-1.96;81.57
76321;BME280;65132;52.088;5.402;2023-03-01T07:23:00;103147.03;;;-1.89;81.70
76321;BME280;65132;52.088;5.402;2023-03-01T07:25:54;103144.19;;;-1.56;80.05
76321;BME280;65132;52.088;5.402;2023-03-01T07:28:38;103137.72;;;-1.28;80.38
76321;BME280;65132;52.088;5.402;2023-03-01T07:31:23;103148.13;;;-1.03;79.46
76321;BME280;65132;52.088;5.402;2023-03-01T07:34:10;103145.09;;;-0.66;78.51
76321;BME280;65132;52.088;5.402;2023-03-01T07:36:56;103135.81;;;-0.32;77.57
76321;BME280;65132;52.088;5.402;2023-03-01T07:39:41;103135.56;;;-0.11;77.27
76321;BME280;65132;52.088;5.402;2023-03-01T07:42:26;103149.41;;;0.13;76.49
76321;BME280;65132;52.088;5.402;2023-03-01T07:45:11;103151.81;;;0.29;75.72
76321;BME280;65132;52.088;5.402;2023-03-01T07:47:56;103149.97;;;0.36;74.82
76321;BME280;65132;52.088;5.402;2023-03-01T07:50:46;103153.84;;;0.70;74.74
76321;BME280;65132;52.088;5.402;2023-03-01T07:53:32;103150.16;;;0.77;74.71
76321;BME280;65132;52.088;5.402;2023-03-01T07:56:18;103151.47;;;1.03;73.69
76321;BME280;65132;52.088;5.402;2023-03-01T07:59:03;103150.22;;;1.24;74.89
76321;BME280;65132;52.088;5.402;2023-03-01T08:01:53;103143.03;;;1.28;74.48
76321;BME280;65132;52.088;5.402;2023-03-01T08:04:40;103149.06;;;1.80;75.06
76321;BME280;65132;52.088;5.402;2023-03-01T08:07:25;103141.97;;;2.18;73.87
76321;BME280;65132;52.088;5.402;2023-03-01T08:10:10;103143.16;;;2.45;72.79
76321;BME280;65132;52.088;5.402;2023-03-01T08:12:37;103136.13;;;2.76;71.28
76321;BME280;65132;52.088;5.402;2023-03-01T08:15:06;103143.44;;;3.03;71.93
76321;BME280;65132;52.088;5.402;2023-03-01T08:17:33;103138.47;;;3.22;69.94
76321;BME280;65132;52.088;5.402;2023-03-01T08:20:03;103138.03;;;3.38;68.83
76321;BME280;65132;52.088;5.402;2023-03-01T08:22:29;103135.13;;;3.77;67.40
76321;BME280;65132;52.088;5.402;2023-03-01T08:24:55;103136.47;;;3.91;67.98
76321;BME280;65132;52.088;5.402;2023-03-01T08:27:25;103134.22;;;4.07;67.23
76321;BME280;65132;52.088;5.402;2023-03-01T08:29:59;103133.75;;;4.22;66.12
76321;BME280;65132;52.088;5.402;2023-03-01T08:32:26;103126.50;;;4.25;64.83
76321;BME280;65132;52.088;5.402;2023-03-01T08:34:55;103125.44;;;4.57;63.25
76321;BME280;65132;52.088;5.402;2023-03-01T08:37:22;103126.25;;;4.86;63.41
76321;BME280;65132;52.088;5.402;2023-03-01T08:39:48;103128.88;;;5.13;61.68
76321;BME280;65132;52.088;5.402;2023-03-01T08:42:14;103117.66;;;5.26;61.38
76321;BME280;65132;52.088;5.402;2023-03-01T08:44:43;103122.44;;;5.66;60.85
76321;BME280;65132;52.088;5.402;2023-03-01T08:47:12;103114.00;;;5.76;59.38
76321;BME280;65132;52.088;5.402;2023-03-01T08:49:38;103106.75;;;6.25;59.35
76321;BME280;65132;52.088;5.402;2023-03-01T08:52:05;103110.75;;;6.58;56.02
76321;BME280;65132;52.088;5.402;2023-03-01T08:54:31;103104.94;;;6.88;55.02
76321;BME280;65132;52.088;5.402;2023-03-01T08:57:01;103097.75;;;6.89;54.42
76321;BME280;65132;52.088;5.402;2023-03-01T08:59:30;103089.84;;;7.06;54.01
76321;BME280;65132;52.088;5.402;2023-03-01T09:01:57;103095.63;;;6.55;54.45
76321;BME280;65132;52.088;5.402;2023-03-01T09:04:23;103091.19;;;6.96;53.79
76321;BME280;65132;52.088;5.402;2023-03-01T09:06:54;103092.25;;;7.32;53.82
76321;BME280;65132;52.088;5.402;2023-03-01T09:09:29;103089.53;;;7.52;53.28
76321;BME280;65132;52.088;5.402;2023-03-01T09:11:56;103083.75;;;7.98;52.75
76321;BME280;65132;52.088;5.402;2023-03-01T09:14:25;103090.97;;;8.16;52.20
76321;BME280;65132;52.088;5.402;2023-03-01T09:16:58;103082.88;;;7.98;52.50
76321;BME280;65132;52.088;5.402;2023-03-01T09:19:27;103076.50;;;8.55;50.38
76321;BME280;65132;52.088;5.402;2023-03-01T09:21:58;103070.53;;;8.48;51.22
76321;BME280;65132;52.088;5.402;2023-03-01T09:24:29;103069.53;;;8.85;49.62
76321;BME280;65132;52.088;5.402;2023-03-01T09:26:56;103066.47;;;8.02;52.10
76321;BME280;65132;52.088;5.402;2023-03-01T09:29:23;103058.28;;;8.94;49.98
76321;BME280;65132;52.088;5.402;2023-03-01T09:31:52;103053.44;;;9.50;47.56
76321;BME280;65132;52.088;5.402;2023-03-01T09:34:21;103043.53;;;9.82;46.04
76321;BME280;65132;52.088;5.402;2023-03-01T09:36:47;103043.31;;;10.48;44.45
76321;BME280;65132;52.088;5.402;2023-03-01T09:39:15;103035.31;;;10.16;43.72
76321;BME280;65132;52.088;5.402;2023-03-01T09:42:11;103038.38;;;10.70;43.53
76321;BME280;65132;52.088;5.402;2023-03-01T09:44:42;103033.44;;;10.77;42.12
76321;BME280;65132;52.088;5.402;2023-03-01T09:47:23;103039.25;;;10.85;41.10
76321;BME280;65132;52.088;5.402;2023-03-01T09:50:16;103036.84;;;10.35;41.77
76321;BME280;65132;52.088;5.402;2023-03-01T09:55:12;103024.97;;;11.69;39.08
76321;BME280;65132;52.088;5.402;2023-03-01T09:57:59;103035.38;;;11.33;39.35
76321;BME280;65132;52.088;5.402;2023-03-01T10:03:43;103036.31;;;10.90;38.61
76321;BME280;65132;52.088;5.402;2023-03-01T10:06:17;103046.44;;;10.86;39.57
76321;BME280;65132;52.088;5.402;2023-03-01T10:09:05;103043.75;;;9.94;41.41
76321;BME280;65132;52.088;5.402;2023-03-01T10:11:42;103047.38;;;11.15;39.16
76321;BME280;65132;52.088;5.402;2023-03-01T10:16:46;103038.91;;;11.77;38.51
76321;BME280;65132;52.088;5.402;2023-03-01T10:19:22;103033.09;;;12.50;36.69
76321;BME280;65132;52.088;5.402;2023-03-01T10:21:51;103032.06;;;12.65;36.67
76321;BME280;65132;52.088;5.402;2023-03-01T10:24:19;103026.97;;;12.34;36.91
76321;BME280;65132;52.088;5.402;2023-03-01T10:26:54;103021.75;;;11.48;38.83
76321;BME280;65132;52.088;5.402;2023-03-01T10:29:42;103024.28;;;12.73;35.76
76321;BME280;65132;52.088;5.402;2023-03-01T10:32:14;103024.59;;;12.42;36.70
76321;BME280;65132;52.088;5.402;2023-03-01T10:34:50;103017.78;;;12.88;36.15
76321;BME280;65132;52.088;5.402;2023-03-01T10:37:21;103007.25;;;12.96;34.85
76321;BME280;65132;52.088;5.402;2023-03-01T10:40:02;103008.03;;;12.33;35.75
76321;BME280;65132;52.088;5.402;2023-03-01T10:42:32;103004.69;;;12.29;34.91
76321;BME280;65132;52.088;5.402;2023-03-01T10:48:23;102994.31;;;13.63;31.80
76321;BME280;65132;52.088;5.402;2023-03-01T10:53:33;102983.47;;;13.38;30.54
76321;BME280;65132;52.088;5.402;2023-03-01T10:56:10;102981.72;;;13.49;30.91
76321;BME280;65132;52.088;5.402;2023-03-01T10:58:41;102978.28;;;13.71;30.18
76321;BME280;65132;52.088;5.402;2023-03-01T11:06:37;102970.41;;;12.41;31.79
76321;BME280;65132;52.088;5.402;2023-03-01T11:09:21;102962.22;;;14.27;30.77
76321;BME280;65132;52.088;5.402;2023-03-01T11:11:53;102956.91;;;14.13;30.16
76321;BME280;65132;52.088;5.402;2023-03-01T11:14:27;102944.38;;;15.04;28.85
76321;BME280;65132;52.088;5.402;2023-03-01T11:17:02;102943.53;;;15.81;28.77
76321;BME280;65132;52.088;5.402;2023-03-01T11:19:32;102948.03;;;15.59;27.00
76321;BME280;65132;52.088;5.402;2023-03-01T11:22:17;102941.06;;;15.11;28.92
76321;BME280;65132;52.088;5.402;2023-03-01T11:24:55;102929.03;;;15.58;27.73
76321;BME280;65132;52.088;5.402;2023-03-01T11:27:45;102935.81;;;15.97;27.49
76321;BME280;65132;52.088;5.402;2023-03-01T11:30:55;102932.41;;;15.39;27.83
76321;BME280;65132;52.088;5.402;2023-03-01T11:34:01;102929.81;;;14.70;26.93
76321;BME280;65132;52.088;5.402;2023-03-01T11:36:50;102928.66;;;15.07;27.06
76321;BME280;65132;52.088;5.402;2023-03-01T11:42:11;102928.19;;;15.57;26.25
76321;BME280;65132;52.088;5.402;2023-03-01T11:44:46;102933.97;;;15.75;25.30
76321;BME280;65132;52.088;5.402;2023-03-01T11:50:07;102924.31;;;15.38;26.88
76321;BME280;65132;52.088;5.402;2023-03-01T11:52:58;102928.72;;;14.38;27.92
76321;BME280;65132;52.088;5.402;2023-03-01T12:06:26;102908.28;;;16.52;25.62
76321;BME280;65132;52.088;5.402;2023-03-01T12:09:14;102909.91;;;15.80;26.00
76321;BME280;65132;52.088;5.402;2023-03-01T12:12:02;102916.03;;;15.50;26.41
76321;BME280;65132;52.088;5.402;2023-03-01T12:14:44;102910.59;;;15.50;26.05
76321;BME280;65132;52.088;5.402;2023-03-01T12:17:39;102909.78;;;16.45;25.58
76321;BME280;65132;52.088;5.402;2023-03-01T12:26:19;102905.38;;;17.15;24.53
76321;BME280;65132;52.088;5.402;2023-03-01T12:35:25;102894.19;;;16.04;24.96
76321;BME280;65132;52.088;5.402;2023-03-01T12:38:22;102889.25;;;16.61;24.14
76321;BME280;65132;52.088;5.402;2023-03-01T12:44:12;102880.56;;;16.56;23.66
76321;BME280;65132;52.088;5.402;2023-03-01T12:47:07;102885.25;;;14.93;25.59
76321;BME280;65132;52.088;5.402;2023-03-01T12:49:48;102875.97;;;15.40;25.93
76321;BME280;65132;52.088;5.402;2023-03-01T12:55:18;102874.69;;;18.20;23.73
76321;BME280;65132;52.088;5.402;2023-03-01T12:58:00;102865.09;;;16.66;24.61
76321;BME280;65132;52.088;5.402;2023-03-01T13:00:32;102855.47;;;17.32;23.72
76321;BME280;65132;52.088;5.402;2023-03-01T13:03:36;102838.31;;;17.60;23.19
76321;BME280;65132;52.088;5.402;2023-03-01T13:06:18;102831.72;;;17.42;22.89
76321;BME280;65132;52.088;5.402;2023-03-01T13:11:50;102827.50;;;17.68;21.81
76321;BME280;65132;52.088;5.402;2023-03-01T13:16:49;102825.47;;;18.56;21.08
76321;BME280;65132;52.088;5.402;2023-03-01T13:19:20;102825.53;;;18.83;21.66
76321;BME280;65132;52.088;5.402;2023-03-01T13:21:49;102810.69;;;19.67;20.79
76321;BME280;65132;52.088;5.402;2023-03-01T13:27:09;102797.22;;;18.37;21.26
76321;BME280;65132;52.088;5.402;2023-03-01T13:29:49;102801.63;;;19.03;21.67
76321;BME280;65132;52.088;5.402;2023-03-01T13:32:42;102793.69;;;18.63;21.96
76321;BME280;65132;52.088;5.402;2023-03-01T13:37:46;102793.91;;;19.16;21.06
76321;BME280;65132;52.088;5.402;2023-03-01T13:42:51;102773.22;;;18.39;21.29
76321;BME280;65132;52.088;5.402;2023-03-01T13:45:38;102772.53;;;17.41;21.42
76321;BME280;65132;52.088;5.402;2023-03-01T13:48:14;102778.94;;;18.64;21.12
76321;BME280;65132;52.088;5.402;2023-03-01T13:50:50;102770.16;;;18.97;20.65
76321;BME280;65132;52.088;5.402;2023-03-01T13:53:19;102769.28;;;19.34;21.24
76321;BME280;65132;52.088;5.402;2023-03-01T13:56:00;102769.63;;;20.18;20.83
76321;BME280;65132;52.088;5.402;2023-03-01T13:58:33;102779.03;;;19.46;20.94
76321;BME280;65132;52.088;5.402;2023-03-01T14:01:04;102760.25;;;19.14;21.31
76321;BME280;65132;52.088;5.402;2023-03-01T14:03:40;102755.63;;;20.12;20.36
76321;BME280;65132;52.088;5.402;2023-03-01T14:06:20;102750.81;;;20.32;19.87
76321;BME280;65132;52.088;5.402;2023-03-01T14:08:52;102752.81;;;19.51;21.58
76321;BME280;65132;52.088;5.402;2023-03-01T14:17:05;102733.88;;;20.44;19.69
76321;BME280;65132;52.088;5.402;2023-03-01T14:19:36;102721.59;;;20.31;19.78
76321;BME280;65132;52.088;5.402;2023-03-01T14:22:18;102733.94;;;18.94;20.60
76321;BME280;65132;52.088;5.402;2023-03-01T14:24:50;102717.56;;;19.47;20.64
76321;BME280;65132;52.088;5.402;2023-03-01T14:27:18;102718.19;;;18.13;21.36
76321;BME280;65132;52.088;5.402;2023-03-01T14:29:57;102707.09;;;20.03;20.08
76321;BME280;65132;52.088;5.402;2023-03-01T14:32:30;102707.06;;;19.60;20.38
76321;BME280;65132;52.088;5.402;2023-03-01T14:35:02;102697.38;;;19.73;20.04
76321;BME280;65132;52.088;5.402;2023-03-01T14:37:33;102700.16;;;19.11;20.54
76321;BME280;65132;52.088;5.402;2023-03-01T14:40:04;102690.72;;;19.76;20.90
76321;BME280;65132;52.088;5.402;2023-03-01T14:42:36;102686.25;;;19.75;19.94
76321;BME280;65132;52.088;5.402;2023-03-01T14:45:06;102690.03;;;21.18;18.66
76321;BME280;65132;52.088;5.402;2023-03-01T14:47:36;102690.03;;;19.39;20.85
76321;BME280;65132;52.088;5.402;2023-03-01T14:50:26;102686.19;;;20.61;19.54
76321;BME280;65132;52.088;5.402;2023-03-01T14:53:02;102684.72;;;20.15;19.22